Japan Airlines Virtual Airport Information Service

New York John F. Kennedy International Airport

ICAO: KJFK Country: United States
Latitude: 40.6398 Longitude: -73.7789
Latest Arrival : SCC26 (EDDF-KJFK) Latest Departure : JAL5 (KJFK-RJTT)


WX CaptureLIVE
Data provided by noaa.gov | Fetched at 07:15:22

METAR : KJFK 090651Z 21004KT 10SM FEW200 BKN250 23/22 A2997 RMK AO2 SLP149 T02330222

TAF : KJFK 090543Z 0906/1012 21006KT P6SM FEW010 SCT250 FM091300 16007KT P6SM FEW020 FEW100 FM091800 15010KT P6SM FEW020 FM100200 11006KT P6SM SCT015 SCT250 FM100600 09006KT P6SM BKN025 FM100900 09009KT P6SM VCSH OVC015


Runway Data for KJFK
Data provided by openaviationdata.com

Runway ID Mag Var Hdg Length Elevation Surface ILS Freq ILS Id ILS Slope
04L -14 44° 11353 ft 13 ft Asphalt 110.9 IHIQ 3
04R -14 44° 8401 ft 13 ft Asphalt 109.5 IJFK 3
13L -14 134° 9992 ft 13 ft Asphalt 111.5 ITLK 3
13R -14 134° 14564 ft 13 ft Asphalt -- -- --
22L -14 224° 8401 ft 13 ft Asphalt 110.9 IIWY 3
22R -14 224° 11353 ft 13 ft Asphalt 109.5 IJOC 3
31L -14 314° 14564 ft 13 ft Asphalt 111.35 IMOH 3
31R -14 314° 9992 ft 13 ft Asphalt 111.5 IRTH 3

New York John F. Kennedy International Airport, United States
Use only for reference purposes



Not for navigational purposes.